createdAt,value
2018-07-21T00:00:40.401Z,1000.63
2018-07-21T00:01:40.407Z,1000.64
2018-07-21T00:02:40.413Z,1000.60
2018-07-21T00:03:40.418Z,1000.64
2018-07-21T00:04:40.422Z,1000.56
2018-07-21T00:05:40.427Z,1000.56
2018-07-21T00:06:40.432Z,1000.57
2018-07-21T00:07:40.440Z,1000.57
2018-07-21T00:08:40.442Z,1000.55
2018-07-21T00:09:40.450Z,1000.60
2018-07-21T00:10:40.452Z,1000.56
2018-07-21T00:11:40.457Z,1000.58
2018-07-21T00:12:40.465Z,1000.52
2018-07-21T00:13:40.468Z,1000.54
2018-07-21T00:14:40.472Z,1000.59
2018-07-21T00:15:40.479Z,1000.51
2018-07-21T00:16:40.483Z,1000.55
2018-07-21T00:17:40.488Z,1000.58
2018-07-21T00:18:40.494Z,1000.57
2018-07-21T00:19:40.499Z,1000.52
2018-07-21T00:20:40.504Z,1000.58
2018-07-21T00:21:40.508Z,1000.54
2018-07-21T00:22:40.513Z,1000.58
2018-07-21T00:23:40.517Z,1000.57
2018-07-21T00:24:40.529Z,1000.59
2018-07-21T00:25:40.529Z,1000.56
2018-07-21T00:26:40.533Z,1000.54
2018-07-21T00:27:40.538Z,1000.58
2018-07-21T00:28:40.545Z,1000.55
2018-07-21T00:29:40.551Z,1000.57
2018-07-21T00:30:40.553Z,1000.57
2018-07-21T00:31:40.559Z,1000.59
2018-07-21T00:32:40.565Z,1000.63
2018-07-21T00:33:40.568Z,1000.58
2018-07-21T00:34:40.574Z,1000.58
2018-07-21T00:35:40.578Z,1000.56
2018-07-21T00:36:40.584Z,1000.58
2018-07-21T00:37:40.589Z,1000.56
2018-07-21T00:38:40.593Z,1000.55
2018-07-21T00:39:40.598Z,1000.54
2018-07-21T00:40:40.604Z,1000.58
2018-07-21T00:41:40.612Z,1000.61
2018-07-21T00:42:40.614Z,1000.64
2018-07-21T00:43:40.625Z,1000.61
2018-07-21T00:44:40.624Z,1000.63
2018-07-21T00:45:40.630Z,1000.61
2018-07-21T00:46:40.633Z,1000.61
2018-07-21T00:47:40.639Z,1000.62
2018-07-21T00:48:40.644Z,1000.65
2018-07-21T00:49:40.648Z,1000.64
2018-07-21T00:50:40.652Z,1000.68
2018-07-21T00:51:40.657Z,1000.63
2018-07-21T00:52:40.664Z,1000.66
2018-07-21T00:53:40.669Z,1000.70
2018-07-21T00:54:40.676Z,1000.65
2018-07-21T00:55:40.676Z,1000.64
2018-07-21T00:56:40.682Z,1000.62
2018-07-21T00:57:40.688Z,1000.69
2018-07-21T00:58:40.691Z,1000.62
2018-07-21T00:59:40.698Z,1000.60
2018-07-21T01:00:40.703Z,1000.55
2018-07-21T01:01:40.707Z,1000.52
2018-07-21T01:02:40.711Z,1000.54
2018-07-21T01:03:40.716Z,1000.53
2018-07-21T01:04:40.721Z,1000.54
2018-07-21T01:05:40.726Z,1000.49
2018-07-21T01:06:40.731Z,1000.48
2018-07-21T01:07:40.735Z,1000.48
2018-07-21T01:08:40.740Z,1000.48
2018-07-21T01:09:40.746Z,1000.51
2018-07-21T01:10:40.751Z,1000.50
2018-07-21T01:11:40.754Z,1000.53
2018-07-21T01:12:40.759Z,1000.53
2018-07-21T01:13:40.766Z,1000.48
2018-07-21T01:14:40.769Z,1000.51
2018-07-21T01:15:40.774Z,1000.53
2018-07-21T01:16:40.779Z,1000.58
2018-07-21T01:17:40.784Z,1000.56
2018-07-21T01:18:40.789Z,1000.60
2018-07-21T01:19:40.794Z,1000.68
2018-07-21T01:20:40.798Z,1000.69
2018-07-21T01:21:40.803Z,1000.68
2018-07-21T01:22:40.807Z,1000.69
2018-07-21T01:23:40.812Z,1000.68
2018-07-21T01:24:40.816Z,1000.66
2018-07-21T01:25:40.823Z,1000.61
2018-07-21T01:26:40.829Z,1000.58
2018-07-21T01:27:40.831Z,1000.54
2018-07-21T01:28:40.837Z,1000.56
2018-07-21T01:29:40.842Z,1000.52
2018-07-21T01:30:40.846Z,1000.51
2018-07-21T01:31:40.850Z,1000.50
2018-07-21T01:32:40.857Z,1000.48
2018-07-21T01:33:40.860Z,1000.50
2018-07-21T01:34:40.865Z,1000.52
2018-07-21T01:35:40.869Z,1000.46
2018-07-21T01:36:40.875Z,1000.46
2018-07-21T01:37:40.880Z,1000.48
2018-07-21T01:38:40.883Z,1000.49
2018-07-21T01:39:40.889Z,1000.48
2018-07-21T01:40:40.894Z,1000.46
2018-07-21T01:41:40.899Z,1000.47
2018-07-21T01:42:40.901Z,1000.44
2018-07-21T01:43:40.908Z,1000.49
2018-07-21T01:44:40.912Z,1000.50
2018-07-21T01:45:40.916Z,1000.53
2018-07-21T01:46:40.922Z,1000.54
2018-07-21T01:47:40.924Z,1000.57
2018-07-21T01:48:40.930Z,1000.54
2018-07-21T01:49:40.935Z,1000.58
2018-07-21T01:50:40.940Z,1000.59
2018-07-21T01:51:40.943Z,1000.56
2018-07-21T01:52:40.949Z,1000.53
2018-07-21T01:53:40.953Z,1000.57
2018-07-21T01:54:40.956Z,1000.55
2018-07-21T01:55:40.965Z,1000.56
2018-07-21T01:56:40.965Z,1000.59
2018-07-21T01:57:40.974Z,1000.58
2018-07-21T01:58:40.976Z,1000.58
2018-07-21T01:59:40.981Z,1000.47
2018-07-21T02:00:40.985Z,1000.50
2018-07-21T02:01:40.990Z,1000.52
2018-07-21T02:02:40.992Z,1000.53
2018-07-21T02:03:40.998Z,1000.50
2018-07-21T02:04:41.002Z,1000.49
2018-07-21T02:05:41.005Z,1000.48
2018-07-21T02:06:41.010Z,1000.53
2018-07-21T02:07:41.014Z,1000.48
2018-07-21T02:08:41.022Z,1000.47
2018-07-21T02:09:41.024Z,1000.50
2018-07-21T02:10:41.026Z,1000.51
2018-07-21T02:11:41.031Z,1000.53
2018-07-21T02:12:41.066Z,1000.54
2018-07-21T02:13:41.040Z,1000.52
2018-07-21T02:14:41.044Z,1000.51
2018-07-21T02:15:41.049Z,1000.50
2018-07-21T02:16:41.054Z,1000.51
2018-07-21T02:17:41.058Z,1000.51
2018-07-21T02:18:41.061Z,1000.52
2018-07-21T02:19:41.064Z,1000.49
2018-07-21T02:20:41.070Z,1000.51
2018-07-21T02:21:41.074Z,1000.51
2018-07-21T02:22:41.135Z,1000.51
2018-07-21T02:23:41.131Z,1000.47
2018-07-21T02:24:41.086Z,1000.48
2018-07-21T02:25:41.092Z,1000.47
2018-07-21T02:26:41.093Z,1000.49
2018-07-21T02:27:41.099Z,1000.51
2018-07-21T02:28:41.103Z,1000.52
2018-07-21T02:29:41.109Z,1000.58
2018-07-21T02:30:41.112Z,1000.57
2018-07-21T02:31:41.115Z,1000.59
2018-07-21T02:32:41.120Z,1000.59
2018-07-21T02:33:41.126Z,1000.61
2018-07-21T02:34:41.129Z,1000.62
2018-07-21T02:35:41.134Z,1000.60
2018-07-21T02:36:41.137Z,1000.60
2018-07-21T02:37:41.145Z,1000.59
2018-07-21T02:38:41.153Z,1000.61
2018-07-21T02:39:41.151Z,1000.57
2018-07-21T02:40:41.155Z,1000.59
2018-07-21T02:41:41.168Z,1000.58
2018-07-21T02:42:41.164Z,1000.57
2018-07-21T02:43:41.168Z,1000.57
2018-07-21T02:44:41.181Z,1000.52
2018-07-21T02:45:41.264Z,1000.52
2018-07-21T02:46:41.182Z,1000.52
2018-07-21T02:47:41.184Z,1000.52
2018-07-21T02:48:41.190Z,1000.49
2018-07-21T02:49:41.198Z,1000.48
2018-07-21T02:50:41.197Z,1000.44
2018-07-21T02:51:41.202Z,1000.43
2018-07-21T02:52:41.208Z,1000.39
2018-07-21T02:53:41.213Z,1000.34
2018-07-21T02:54:41.215Z,1000.35
2018-07-21T02:55:41.220Z,1000.31
2018-07-21T02:56:41.225Z,1000.24
2018-07-21T02:57:41.230Z,1000.18
2018-07-21T02:58:41.233Z,1000.14
2018-07-21T02:59:41.236Z,1000.11
2018-07-21T03:00:41.243Z,1000.11
2018-07-21T03:01:41.247Z,1000.05
2018-07-21T03:02:41.249Z,1000.01
2018-07-21T03:03:41.254Z,1000.04
2018-07-21T03:04:41.259Z,1000.00
2018-07-21T03:05:41.267Z,1000.03
2018-07-21T03:06:41.271Z,1000.02
2018-07-21T03:07:41.272Z,999.97
2018-07-21T03:08:41.276Z,1000.00
2018-07-21T03:09:41.282Z,999.99
2018-07-21T03:10:41.285Z,999.95
2018-07-21T03:11:41.292Z,999.99
2018-07-21T03:12:41.295Z,999.98
2018-07-21T03:13:41.298Z,1000.02
2018-07-21T03:14:41.302Z,1000.04
2018-07-21T03:15:41.310Z,1000.05
2018-07-21T03:16:41.312Z,1000.10
2018-07-21T03:17:41.315Z,1000.08
2018-07-21T03:18:41.319Z,1000.10
2018-07-21T03:19:41.324Z,1000.17
2018-07-21T03:20:41.330Z,1000.16
2018-07-21T03:21:41.334Z,1000.19
2018-07-21T03:22:41.336Z,1000.23
2018-07-21T03:23:41.342Z,1000.24
2018-07-21T03:24:41.350Z,1000.29
2018-07-21T03:25:41.349Z,1000.28
2018-07-21T03:26:41.353Z,1000.32
2018-07-21T03:27:41.357Z,1000.35
2018-07-21T03:28:41.361Z,1000.37
2018-07-21T03:29:41.367Z,1000.37
2018-07-21T03:30:41.449Z,1000.39
2018-07-21T03:31:41.373Z,1000.40
2018-07-21T03:32:41.377Z,1000.45
2018-07-21T03:33:41.381Z,1000.46
2018-07-21T03:34:41.385Z,1000.47
2018-07-21T03:35:41.389Z,1000.46
2018-07-21T03:36:41.394Z,1000.44
2018-07-21T03:37:41.399Z,1000.39
2018-07-21T03:38:41.402Z,1000.41
2018-07-21T03:39:41.405Z,1000.37
2018-07-21T03:40:41.412Z,1000.39
2018-07-21T03:41:41.414Z,1000.39
2018-07-21T03:42:41.417Z,1000.43
2018-07-21T03:43:41.421Z,1000.38
2018-07-21T03:44:41.427Z,1000.37
2018-07-21T03:45:41.431Z,1000.41
2018-07-21T03:46:41.433Z,1000.38
2018-07-21T03:47:41.440Z,1000.37
2018-07-21T03:48:41.445Z,1000.38
2018-07-21T03:49:41.446Z,1000.34
2018-07-21T03:50:41.450Z,1000.30
2018-07-21T03:51:41.454Z,1000.30
2018-07-21T03:52:41.458Z,1000.27
2018-07-21T03:53:41.462Z,1000.32
2018-07-21T03:54:41.466Z,1000.26
2018-07-21T03:55:41.471Z,1000.28
2018-07-21T03:56:41.474Z,1000.24
2018-07-21T03:57:41.478Z,1000.28
2018-07-21T03:58:41.481Z,1000.26
2018-07-21T03:59:41.486Z,1000.26
2018-07-21T04:00:41.490Z,1000.25
2018-07-21T04:01:41.495Z,1000.27
2018-07-21T04:02:41.497Z,1000.24
2018-07-21T04:03:41.502Z,1000.26
2018-07-21T04:04:41.507Z,1000.27
2018-07-21T04:05:41.510Z,1000.24
2018-07-21T04:06:41.514Z,1000.24
2018-07-21T04:07:41.517Z,1000.24
2018-07-21T04:08:41.521Z,1000.23
2018-07-21T04:09:41.525Z,1000.23
2018-07-21T04:10:41.529Z,1000.22
2018-07-21T04:11:41.533Z,1000.23
2018-07-21T04:12:41.538Z,1000.18
2018-07-21T04:13:41.542Z,1000.20
2018-07-21T04:14:41.545Z,1000.21
2018-07-21T04:15:41.550Z,1000.17
2018-07-21T04:16:41.555Z,1000.19
2018-07-21T04:17:41.559Z,1000.14
2018-07-21T04:18:41.560Z,1000.13
2018-07-21T04:19:41.565Z,1000.13
2018-07-21T04:20:41.569Z,1000.12
2018-07-21T04:21:41.573Z,1000.08
2018-07-21T04:22:41.577Z,1000.10
2018-07-21T04:23:41.582Z,1000.10
2018-07-21T04:24:41.584Z,1000.10
2018-07-21T04:25:41.590Z,1000.12
2018-07-21T04:26:41.591Z,1000.13
2018-07-21T04:27:41.599Z,1000.14
2018-07-21T04:28:41.600Z,1000.18
2018-07-21T04:29:41.605Z,1000.22
2018-07-21T04:30:41.607Z,1000.23
2018-07-21T04:31:41.610Z,1000.25
2018-07-21T04:32:41.615Z,1000.25
2018-07-21T04:33:41.620Z,1000.27
2018-07-21T04:34:41.623Z,1000.31
2018-07-21T04:35:41.626Z,1000.31
2018-07-21T04:36:41.633Z,1000.33
2018-07-21T04:37:41.636Z,1000.29
2018-07-21T04:38:41.641Z,1000.26
2018-07-21T04:39:41.640Z,1000.28
2018-07-21T04:40:41.645Z,1000.31
2018-07-21T04:41:41.650Z,1000.32
2018-07-21T04:42:41.652Z,1000.31
2018-07-21T04:43:41.656Z,1000.33
2018-07-21T04:44:41.661Z,1000.36
2018-07-21T04:45:41.664Z,1000.35
2018-07-21T04:46:41.667Z,1000.32
2018-07-21T04:47:41.672Z,1000.35
2018-07-21T04:48:41.674Z,1000.36
2018-07-21T04:49:41.679Z,1000.38
2018-07-21T04:50:41.681Z,1000.33
2018-07-21T04:51:41.687Z,1000.33
2018-07-21T04:52:41.690Z,1000.31
2018-07-21T04:53:41.693Z,1000.30
2018-07-21T04:54:41.699Z,1000.31
2018-07-21T04:55:41.706Z,1000.33
2018-07-21T04:56:41.705Z,1000.31
2018-07-21T04:57:41.708Z,1000.26
2018-07-21T04:58:41.711Z,1000.25
2018-07-21T04:59:41.714Z,1000.31
2018-07-21T05:00:41.767Z,1000.26
2018-07-21T05:01:41.724Z,1000.29
2018-07-21T05:02:41.726Z,1000.26
2018-07-21T05:03:41.729Z,1000.23
2018-07-21T05:04:41.735Z,1000.24
2018-07-21T05:05:41.738Z,1000.28
2018-07-21T05:06:41.741Z,1000.31
2018-07-21T05:07:41.744Z,1000.31
2018-07-21T05:08:41.751Z,1000.30
2018-07-21T05:09:41.753Z,1000.34
2018-07-21T05:10:41.756Z,1000.37
2018-07-21T05:11:41.762Z,1000.39
2018-07-21T05:12:41.763Z,1000.33
2018-07-21T05:13:41.768Z,1000.36
2018-07-21T05:14:41.770Z,1000.37
2018-07-21T05:15:41.773Z,1000.38
2018-07-21T05:16:41.778Z,1000.39
2018-07-21T05:17:41.782Z,1000.39
2018-07-21T05:18:41.785Z,1000.41
2018-07-21T05:19:41.790Z,1000.40
2018-07-21T05:20:41.795Z,1000.41
2018-07-21T05:21:41.800Z,1000.38
2018-07-21T05:22:41.802Z,1000.41
2018-07-21T05:23:41.805Z,1000.40
2018-07-21T05:24:41.809Z,1000.44
2018-07-21T05:25:41.812Z,1000.42
2018-07-21T05:26:41.818Z,1000.42
2018-07-21T05:27:41.820Z,1000.46
2018-07-21T05:28:41.824Z,1000.46
2018-07-21T05:29:41.828Z,1000.42
2018-07-21T05:30:41.832Z,1000.44
2018-07-21T05:31:41.837Z,1000.43
2018-07-21T05:32:41.838Z,1000.47
2018-07-21T05:33:41.844Z,1000.45
2018-07-21T05:34:41.848Z,1000.47
2018-07-21T05:35:41.852Z,1000.46
2018-07-21T05:36:41.854Z,1000.48
2018-07-21T05:37:41.859Z,1000.47
2018-07-21T05:38:41.863Z,1000.55
2018-07-21T05:39:41.871Z,1000.54
2018-07-21T05:40:41.871Z,1000.59
2018-07-21T05:41:41.893Z,1000.58
2018-07-21T05:42:41.878Z,1000.61
2018-07-21T05:43:41.882Z,1000.59
2018-07-21T05:44:41.887Z,1000.60
2018-07-21T05:45:41.893Z,1000.60
2018-07-21T05:46:41.896Z,1000.62
2018-07-21T05:47:41.903Z,1000.62
2018-07-21T05:48:41.904Z,1000.68
2018-07-21T05:49:41.909Z,1000.68
2018-07-21T05:50:41.912Z,1000.66
2018-07-21T05:51:41.917Z,1000.67
2018-07-21T05:52:41.920Z,1000.71
2018-07-21T05:53:41.928Z,1000.71
2018-07-21T05:54:41.958Z,1000.71
2018-07-21T05:55:41.933Z,1000.74
2018-07-21T05:56:41.938Z,1000.76
2018-07-21T05:57:41.943Z,1000.75
2018-07-21T05:58:41.950Z,1000.78
2018-07-21T05:59:41.951Z,1000.77
2018-07-21T06:00:41.956Z,1000.77
2018-07-21T06:01:41.964Z,1000.74
2018-07-21T06:02:42.004Z,1000.75
2018-07-21T06:03:41.969Z,1000.76
2018-07-21T06:04:41.975Z,1000.81
2018-07-21T06:05:41.981Z,1000.78
2018-07-21T06:06:41.985Z,1000.78
2018-07-21T06:07:41.988Z,1000.77
2018-07-21T06:08:42.027Z,1000.78
2018-07-21T06:09:42.000Z,1000.83
2018-07-21T06:10:42.003Z,1000.82
2018-07-21T06:11:42.008Z,1000.81
2018-07-21T06:12:42.015Z,1000.82
2018-07-21T06:13:42.020Z,1000.84
2018-07-21T06:14:42.024Z,1000.87
2018-07-21T06:15:42.028Z,1000.88
2018-07-21T06:16:42.035Z,1000.92
2018-07-21T06:17:42.040Z,1000.94
2018-07-21T06:18:42.083Z,1000.93
2018-07-21T06:19:42.049Z,1000.97
2018-07-21T06:20:42.056Z,1000.96
2018-07-21T06:21:42.060Z,1001.03
2018-07-21T06:22:42.065Z,1000.98
2018-07-21T06:23:42.096Z,1000.99
2018-07-21T06:24:42.075Z,1001.03
2018-07-21T06:25:42.083Z,1001.02
2018-07-21T06:26:42.086Z,1001.06
2018-07-21T06:27:42.091Z,1001.04
2018-07-21T06:28:42.096Z,1001.04
2018-07-21T06:29:42.104Z,1001.03
2018-07-21T06:30:42.108Z,1001.06
2018-07-21T06:31:42.113Z,1001.05
2018-07-21T06:32:42.119Z,1001.02
2018-07-21T06:33:42.129Z,1000.97
2018-07-21T06:34:42.129Z,1001.00
2018-07-21T06:35:42.138Z,1000.97
2018-07-21T06:36:42.141Z,1000.99
2018-07-21T06:37:42.148Z,1001.01
2018-07-21T06:38:42.152Z,1001.04
2018-07-21T06:39:42.158Z,1001.01
2018-07-21T06:40:42.166Z,1001.05
2018-07-21T06:41:42.172Z,1001.07
2018-07-21T06:42:42.175Z,1001.09
2018-07-21T06:43:42.181Z,1001.11
2018-07-21T06:44:42.188Z,1001.12
2018-07-21T06:45:42.194Z,1001.15
2018-07-21T06:46:42.198Z,1001.17
2018-07-21T06:47:42.204Z,1001.18
2018-07-21T06:48:42.211Z,1001.23
2018-07-21T06:49:42.252Z,1001.19
2018-07-21T06:50:42.222Z,1001.20
2018-07-21T06:51:42.232Z,1001.21
2018-07-21T06:52:42.235Z,1001.20
2018-07-21T06:53:42.240Z,1001.23
2018-07-21T06:54:42.246Z,1001.22
2018-07-21T06:55:42.252Z,1001.26
2018-07-21T06:56:42.258Z,1001.24
2018-07-21T06:57:42.265Z,1001.27
2018-07-21T06:58:42.270Z,1001.30
2018-07-21T06:59:42.276Z,1001.31
2018-07-21T07:00:42.283Z,1001.31
2018-07-21T07:01:42.288Z,1001.34
2018-07-21T07:02:42.294Z,1001.34
2018-07-21T07:03:42.301Z,1001.32
2018-07-21T07:04:42.324Z,1001.36
2018-07-21T07:05:42.315Z,1001.31
2018-07-21T07:06:42.320Z,1001.27
2018-07-21T07:07:42.326Z,1001.30
2018-07-21T07:08:42.333Z,1001.25
2018-07-21T07:09:42.340Z,1001.26
2018-07-21T07:10:42.344Z,1001.22
2018-07-21T07:11:42.351Z,1001.20
2018-07-21T07:12:42.359Z,1001.21
2018-07-21T07:13:42.365Z,1001.17
2018-07-21T07:14:42.371Z,1001.17
2018-07-21T07:15:42.377Z,1001.20
2018-07-21T07:16:42.385Z,1001.20
2018-07-21T07:17:42.394Z,1001.18
2018-07-21T07:18:42.397Z,1001.19
2018-07-21T07:19:42.403Z,1001.13
2018-07-21T07:20:42.411Z,1001.14
2018-07-21T07:21:42.419Z,1001.16
2018-07-21T07:22:42.425Z,1001.13
2018-07-21T07:23:42.433Z,1001.17
2018-07-21T07:24:42.440Z,1001.16
2018-07-21T07:25:42.447Z,1001.14
2018-07-21T07:26:42.453Z,1001.16
2018-07-21T07:27:42.461Z,1001.16
2018-07-21T07:28:42.467Z,1001.17
2018-07-21T07:29:42.476Z,1001.14
2018-07-21T07:30:42.481Z,1001.18
2018-07-21T07:31:42.488Z,1001.18
2018-07-21T07:32:42.496Z,1001.17
2018-07-21T07:33:42.504Z,1001.21
2018-07-21T07:34:42.510Z,1001.28
2018-07-21T07:35:42.517Z,1001.29
2018-07-21T07:36:42.524Z,1001.32
2018-07-21T07:37:42.532Z,1001.28
2018-07-21T07:38:42.540Z,1001.34
2018-07-21T07:39:42.547Z,1001.31
2018-07-21T07:40:42.553Z,1001.30
2018-07-21T07:41:42.562Z,1001.31
2018-07-21T07:42:42.569Z,1001.33
2018-07-21T07:43:42.576Z,1001.33
2018-07-21T07:44:42.585Z,1001.36
2018-07-21T07:45:42.593Z,1001.44
2018-07-21T07:46:42.600Z,1001.64
2018-07-21T07:47:42.609Z,1001.77
2018-07-21T07:48:42.617Z,1002.16
2018-07-21T07:49:42.628Z,1002.21
2018-07-21T07:50:42.634Z,1002.27
2018-07-21T07:51:42.644Z,1002.33
2018-07-21T07:52:42.654Z,1002.35
2018-07-21T07:53:42.667Z,1002.32
2018-07-21T07:54:42.674Z,1002.26
2018-07-21T07:55:42.685Z,1002.34
2018-07-21T07:56:42.696Z,1002.34
2018-07-21T07:57:42.707Z,1002.25
2018-07-21T07:58:42.718Z,1002.40
2018-07-21T07:59:42.729Z,1002.25
2018-07-21T08:00:42.744Z,1002.29
2018-07-21T08:01:42.756Z,1002.05
2018-07-21T08:02:42.769Z,1001.60
2018-07-21T08:03:42.782Z,1001.55
2018-07-21T08:04:42.796Z,1001.73
2018-07-21T08:05:42.809Z,1002.09
2018-07-21T08:06:42.822Z,1001.93
2018-07-21T08:07:42.836Z,1001.89
2018-07-21T08:08:42.850Z,1001.66
2018-07-21T08:09:42.862Z,1001.81
2018-07-21T08:10:42.875Z,1001.71
2018-07-21T08:11:42.887Z,1001.66
2018-07-21T08:12:42.903Z,1001.93
2018-07-21T08:13:42.917Z,1001.93
2018-07-21T08:14:42.929Z,1001.94
2018-07-21T08:15:42.941Z,1002.07
2018-07-21T08:16:42.955Z,1002.10
2018-07-21T08:17:42.968Z,1001.86
2018-07-21T08:18:42.987Z,1001.78
2018-07-21T08:19:43.002Z,1001.72
2018-07-21T08:20:43.009Z,1001.84
2018-07-21T08:21:43.023Z,1001.81
2018-07-21T08:22:43.035Z,1001.87
2018-07-21T08:23:43.049Z,1001.92
2018-07-21T08:24:43.062Z,1001.91
2018-07-21T08:25:43.074Z,1001.74
2018-07-21T08:26:43.089Z,1001.73
2018-07-21T08:27:43.103Z,1001.65
2018-07-21T08:28:43.115Z,1001.67
2018-07-21T08:29:43.128Z,1001.65
2018-07-21T08:30:43.139Z,1001.61
2018-07-21T08:31:43.153Z,1001.77
2018-07-21T08:32:43.168Z,1001.86
2018-07-21T08:33:43.180Z,1001.79
2018-07-21T08:34:43.214Z,1001.71
2018-07-21T08:35:43.204Z,1001.57
2018-07-21T08:36:43.218Z,1001.65
2018-07-21T08:37:43.232Z,1001.84
2018-07-21T08:38:43.243Z,1001.83
2018-07-21T08:39:43.258Z,1001.75
2018-07-21T08:40:43.272Z,1001.74
2018-07-21T08:41:43.285Z,1001.85
2018-07-21T08:42:43.295Z,1001.84
2018-07-21T08:43:43.309Z,1001.77
2018-07-21T08:44:43.323Z,1001.86
2018-07-21T08:45:43.337Z,1001.83
2018-07-21T08:46:43.349Z,1001.88
2018-07-21T08:47:43.364Z,1001.88
2018-07-21T08:48:43.377Z,1001.85
2018-07-21T08:49:43.396Z,1001.80
2018-07-21T08:50:43.408Z,1001.73
2018-07-21T08:51:43.418Z,1001.71
2018-07-21T08:52:43.434Z,1001.73
2018-07-21T08:53:43.448Z,1001.80
2018-07-21T08:54:43.461Z,1001.84
2018-07-21T08:55:43.528Z,1001.93
2018-07-21T08:56:43.491Z,1001.83
2018-07-21T08:57:43.504Z,1001.80
2018-07-21T08:58:43.519Z,1001.88
2018-07-21T08:59:43.532Z,1001.68
2018-07-21T09:00:43.545Z,1001.72
2018-07-21T09:01:43.561Z,1001.69
2018-07-21T09:02:43.574Z,1001.74
2018-07-21T09:03:43.590Z,1001.79
2018-07-21T09:04:43.604Z,1001.80
2018-07-21T09:05:43.635Z,1001.70
2018-07-21T09:06:43.630Z,1001.64
2018-07-21T09:07:43.645Z,1001.81
2018-07-21T09:08:43.661Z,1001.96
2018-07-21T09:09:43.678Z,1001.90
2018-07-21T09:10:43.687Z,1001.89
2018-07-21T09:11:43.702Z,1001.92
2018-07-21T09:12:43.721Z,1001.86
2018-07-21T09:13:43.730Z,1001.70
2018-07-21T09:14:43.743Z,1001.67
2018-07-21T09:15:43.758Z,1001.61
2018-07-21T09:16:43.772Z,1001.60
2018-07-21T09:17:43.788Z,1001.58
2018-07-21T09:18:43.801Z,1001.60
2018-07-21T09:19:43.817Z,1001.71
2018-07-21T09:20:43.834Z,1001.87
2018-07-21T09:21:43.846Z,1001.91
2018-07-21T09:22:43.857Z,1001.84
2018-07-21T09:23:43.871Z,1002.00
2018-07-21T09:24:43.886Z,1001.93
2018-07-21T09:25:43.902Z,1001.96
2018-07-21T09:26:43.914Z,1001.98
2018-07-21T09:27:43.929Z,1001.90
2018-07-21T09:28:43.943Z,1001.99
2018-07-21T09:29:43.962Z,1001.95
2018-07-21T09:30:43.972Z,1002.05
2018-07-21T09:31:43.985Z,1002.13
2018-07-21T09:32:44.002Z,1002.11
2018-07-21T09:33:44.016Z,1002.02
2018-07-21T09:34:44.028Z,1001.98
2018-07-21T09:35:44.047Z,1002.03
2018-07-21T09:36:44.060Z,1001.88
2018-07-21T09:37:44.074Z,1001.76
2018-07-21T09:38:44.089Z,1001.97
2018-07-21T09:39:44.103Z,1001.76
2018-07-21T09:40:44.118Z,1001.59
2018-07-21T09:41:44.134Z,1001.63
2018-07-21T09:42:44.148Z,1001.78
2018-07-21T09:43:44.163Z,1002.04
2018-07-21T09:44:44.178Z,1001.99
2018-07-21T09:45:44.193Z,1001.92
2018-07-21T09:46:44.206Z,1001.90
2018-07-21T09:47:44.222Z,1001.94
2018-07-21T09:48:44.238Z,1001.79
2018-07-21T09:49:44.252Z,1002.01
2018-07-21T09:50:44.266Z,1002.07
2018-07-21T09:51:44.281Z,1002.07
2018-07-21T09:52:44.298Z,1002.09
2018-07-21T09:53:44.312Z,1002.04
2018-07-21T09:54:44.329Z,1002.02
2018-07-21T09:55:44.353Z,1001.77
2018-07-21T09:56:44.357Z,1001.59
2018-07-21T09:57:44.384Z,1001.94
2018-07-21T09:58:44.386Z,1001.97
2018-07-21T09:59:44.403Z,1002.03
2018-07-21T10:00:44.417Z,1002.15
2018-07-21T10:01:44.433Z,1002.16
2018-07-21T10:02:44.447Z,1002.10
2018-07-21T10:03:44.463Z,1002.14
2018-07-21T10:04:44.477Z,1002.17
2018-07-21T10:05:44.494Z,1002.13
2018-07-21T10:06:44.507Z,1002.07
2018-07-21T10:07:44.522Z,1002.14
2018-07-21T10:08:44.537Z,1002.13
2018-07-21T10:09:44.553Z,1002.09
2018-07-21T10:10:44.568Z,1002.07
2018-07-21T10:11:44.583Z,1002.05
2018-07-21T10:12:44.598Z,1001.92
2018-07-21T10:13:44.615Z,1001.93
2018-07-21T10:14:44.628Z,1002.03
2018-07-21T10:15:44.645Z,1002.06
2018-07-21T10:16:44.660Z,1002.11
2018-07-21T10:17:44.676Z,1002.11
2018-07-21T10:18:44.690Z,1002.07
2018-07-21T10:19:44.706Z,1002.13
2018-07-21T10:20:44.722Z,1002.13
2018-07-21T10:21:44.761Z,1002.10
2018-07-21T10:22:44.752Z,1002.10
2018-07-21T10:23:44.768Z,1002.14
2018-07-21T10:24:44.783Z,1002.12
2018-07-21T10:25:44.805Z,1002.13
2018-07-21T10:26:44.814Z,1002.09
2018-07-21T10:27:44.831Z,1001.86
2018-07-21T10:28:44.845Z,1001.79
2018-07-21T10:29:44.862Z,1002.20
2018-07-21T10:30:44.877Z,1002.20
2018-07-21T10:31:44.893Z,1002.21
2018-07-21T10:32:44.908Z,1002.20
2018-07-21T10:33:44.924Z,1001.80
2018-07-21T10:34:44.941Z,1001.80
2018-07-21T10:35:44.955Z,1001.95
2018-07-21T10:36:44.971Z,1001.94
2018-07-21T10:37:44.987Z,1002.12
2018-07-21T10:38:45.001Z,1002.16
2018-07-21T10:39:45.023Z,1002.18
2018-07-21T10:40:45.031Z,1002.08
2018-07-21T10:41:45.050Z,1002.12
2018-07-21T10:42:45.063Z,1002.20
2018-07-21T10:43:45.081Z,1002.27
2018-07-21T10:44:45.092Z,1002.26
2018-07-21T10:45:45.109Z,1002.25
2018-07-21T10:46:45.123Z,1002.21
2018-07-21T10:47:45.140Z,1002.23
2018-07-21T10:48:45.153Z,1002.13
2018-07-21T10:49:45.170Z,1002.13
2018-07-21T10:50:45.233Z,1002.14
2018-07-21T10:51:45.199Z,1002.11
2018-07-21T10:52:45.215Z,1002.09
2018-07-21T10:53:45.231Z,1002.01
2018-07-21T10:54:45.244Z,1002.01
2018-07-21T10:55:45.260Z,1002.14
2018-07-21T10:56:45.276Z,1002.12
2018-07-21T10:57:45.291Z,1002.08
2018-07-21T10:58:45.305Z,1002.13
2018-07-21T10:59:45.322Z,1002.13
2018-07-21T11:00:45.337Z,1002.10
2018-07-21T11:01:45.353Z,1002.12
2018-07-21T11:02:45.367Z,1002.12
2018-07-21T11:03:45.382Z,1002.11
2018-07-21T11:04:45.397Z,1002.12
2018-07-21T11:05:45.416Z,1002.09
2018-07-21T11:06:45.426Z,1002.04
2018-07-21T11:07:45.444Z,1002.05
2018-07-21T11:08:45.458Z,1002.02
2018-07-21T11:09:45.489Z,1002.02
2018-07-21T11:10:45.492Z,1001.98
2018-07-21T11:11:45.504Z,1002.03
2018-07-21T11:12:45.532Z,1002.00
2018-07-21T11:13:45.535Z,1002.03
2018-07-21T11:14:45.549Z,1002.02
2018-07-21T11:15:45.565Z,1002.00
2018-07-21T11:16:45.580Z,1001.97
2018-07-21T11:17:45.595Z,1001.97
2018-07-21T11:18:45.610Z,1001.92
2018-07-21T11:19:45.625Z,1001.94
2018-07-21T11:20:45.639Z,1001.83
2018-07-21T11:21:45.658Z,1001.86
2018-07-21T11:22:45.670Z,1001.82
2018-07-21T11:23:45.688Z,1001.85
2018-07-21T11:24:45.701Z,1001.83
2018-07-21T11:25:45.717Z,1001.71
2018-07-21T11:26:45.733Z,1001.67
2018-07-21T11:27:45.745Z,1001.67
2018-07-21T11:28:45.759Z,1001.66
2018-07-21T11:29:45.774Z,1001.62
2018-07-21T11:30:45.788Z,1001.58
2018-07-21T11:31:45.803Z,1001.52
2018-07-21T11:32:45.819Z,1001.55
2018-07-21T11:33:45.833Z,1001.57
2018-07-21T11:34:45.846Z,1001.48
2018-07-21T11:35:46.038Z,1001.47
2018-07-21T11:36:45.876Z,1001.49
2018-07-21T11:37:45.890Z,1001.49
2018-07-21T11:38:45.903Z,1001.50
2018-07-21T11:39:45.917Z,1001.54
2018-07-21T11:40:45.931Z,1001.56
2018-07-21T11:41:45.946Z,1001.51
2018-07-21T11:42:45.959Z,1001.53
2018-07-21T11:43:45.972Z,1001.52
2018-07-21T11:44:45.989Z,1001.45
2018-07-21T11:45:46.002Z,1001.48
2018-07-21T11:46:46.013Z,1001.54
2018-07-21T11:47:46.027Z,1001.51
2018-07-21T11:48:46.040Z,1001.49
2018-07-21T11:49:46.057Z,1001.47
2018-07-21T11:50:46.069Z,1001.44
2018-07-21T11:51:46.081Z,1001.51
2018-07-21T11:52:46.100Z,1001.53
2018-07-21T11:53:46.108Z,1001.49
2018-07-21T11:54:46.120Z,1001.47
2018-07-21T11:55:46.135Z,1001.52
2018-07-21T11:56:46.149Z,1001.54
2018-07-21T11:57:46.162Z,1001.56
2018-07-21T11:58:46.174Z,1001.60
2018-07-21T11:59:46.189Z,1001.55
2018-07-21T12:00:46.201Z,1001.53
2018-07-21T12:01:46.268Z,1001.55
2018-07-21T12:02:46.227Z,1001.56
2018-07-21T12:03:46.240Z,1001.55
2018-07-21T12:04:46.253Z,1001.58
2018-07-21T12:05:46.347Z,1001.56